Flight Track Log - Related Links

Times and Time Zones

All times are in EDT time to prevent confusion due to time zone crossing. See the N884FT flight status page for this flight to view local times or setup timezone preferences in your user account.

Time Position Orientation Groundspeed Altitude Reporting Facility
EDT Latitude Longitude Course Direction KTS MPH feet Rate Location/Type
Wed 09:14:00 AM 28.1000 -80.6667 270° West 103 119 400  Level Orlando TRACON
Wed 09:15:19 AM 28.1000 -80.7000 270° West 100 115 1,200 632 Climbing Orlando TRACON
Wed 09:16:13 AM 28.1167 -80.7333 300° West 97 112 1,800 632 Climbing Orlando TRACON
Wed 09:17:13 AM 28.0833 -80.7333 180° South 109 125 2,400 600 Climbing Orlando TRACON
Wed 09:18:13 AM 28.0667 -80.7000 120° Southeast 116 133 3,000 571 Climbing Orlando TRACON
Wed 09:19:19 AM 28.0500 -80.6667 120° Southeast 124 143 3,600 496 Climbing Orlando TRACON
Wed 09:20:14 AM 28.0333 -80.6333 120° Southeast 130 150 4,000 209 Climbing Orlando TRACON
Wed 09:21:14 AM 28.0000 -80.6000 139° Southeast 124 143 4,000  Level Orlando TRACON
Wed 09:22:25 AM 27.9697 -80.6028 185° South 121 139 4,000  Level Miami Center
Wed 09:23:27 AM 27.9353 -80.5936 167° South 121 139 4,000  Level Miami Center
Wed 09:24:28 AM 27.9039 -80.5714 148° Southeast 123 142 4,000  Level Miami Center
Wed 09:25:30 AM 27.8708 -80.5567 159° South 123 142 4,000  Level Miami Center
Wed 09:26:31 AM 27.8664 -80.5161 97° East 138 159 4,000  Level Miami Center
Wed 09:27:33 AM 27.8714 -80.4750 82° East 144 166 4,000  Level Miami Center
Wed 09:28:34 AM 27.8767 -80.4308 82° East 143 165 4,000  Level Miami Center
Wed 09:29:36 AM 27.8839 -80.3789 81° East 143 165 4,000  Level Miami Center
Wed 09:30:37 AM 27.8894 -80.3342 82° East 143 165 4,000  Level Miami Center
Wed 09:31:39 AM 27.8825 -80.2942 101° East 138 159 4,000  Level Miami Center
Wed 09:32:40 AM 27.8522 -80.2656 140° Southeast 133 153 4,000 -244 Level Miami Center
Wed 09:33:42 AM 27.8250 -80.2442 145° Southeast 128 147 3,500 -439 Descending Miami Center
Wed 09:34:43 AM 27.7939 -80.2253 152° Southeast 124 143 3,100 -244 Descending Miami Center
Wed 09:35:45 AM 27.7636 -80.2069 152° Southeast 121 139 3,000 -49 Descending Miami Center
Wed 09:36:46 AM 27.7325 -80.1958 162° South 117 135 3,000  Level Miami Center
Wed 09:37:48 AM 27.7033 -80.1922 174° South 113 130 3,000  Level Miami Center
Wed 09:38:50 AM 27.6711 -80.1944 183° South 111 128 3,000  Level Miami Center
Wed 09:39:51 AM 27.6406 -80.1983 186° South 110 127 3,000 -98 Level Miami Center
Wed 09:40:53 AM 27.6158 -80.2192 217° Southwest 109 125 2,800 -390 Descending Miami Center
Wed 09:41:54 AM 27.6147 -80.2525 268° West 110 127 2,200 -488 Descending Miami Center
Wed 09:42:56 AM 27.6183 -80.2858 277° West 102 117 1,800 -195 Descending Miami Center
Wed 09:43:57 AM 27.6228 -80.3169 279° West 101 116 1,800 -390 Level Miami Center
Wed 09:44:59 AM 27.6331 -80.3450 292° West 95 109 1,000 -634 Descending Miami Center
Wed 09:46:00 AM 27.6392 -80.3722 284° West 94 108 500 -195 Descending Miami Center
Wed 09:47:02 AM 27.6494 -80.4022 291° West 95 109 600 683 Climbing Miami Center
Wed 09:48:03 AM 27.6617 -80.4294 297° West 95 109 1,900 683 Climbing Miami Center
Wed 09:49:05 AM 27.6922 -80.4531 326° Northwest 128 147 2,000 48 Climbing Miami Center
Wed 09:50:07 AM 27.7183 -80.4772 321° Northwest 127 146 2,000 195 Level Miami Center
Wed 09:51:08 AM 27.7453 -80.5006 323° Northwest 120 138 2,400 439 Climbing Miami Center
Wed 09:52:10 AM 27.7739 -80.5275 320° Northwest 125 144 2,900 290 Climbing Miami Center
Wed 09:53:12 AM 27.8017 -80.5150 22° Northeast 155 178 3,000 49 Climbing Miami Center
Wed 09:54:13 AM 27.7872 -80.4728 111° Southeast 140 161 3,000  Level Miami Center
Wed 09:55:15 AM 27.7814 -80.4328 99° East 136 157 3,000  Level Miami Center
Wed 09:56:17 AM 27.7789 -80.3883 94° East 136 157 3,000  Level Miami Center
Wed 09:57:18 AM 27.7764 -80.3436 94° East 136 157 3,000  Level Miami Center
Wed 09:58:20 AM 27.7897 -80.3008 71° East 136 157 3,000  Level Miami Center
Wed 09:59:22 AM 27.8092 -80.2664 57° Northeast 146 168 3,000  Level Miami Center
Wed 10:00:24 AM 27.8286 -80.2903 313° West 123 142 3,000  Level Miami Center
Wed 10:01:25 AM 27.8086 -80.3172 230° Southwest 111 128 3,000  Level Miami Center
Wed 10:02:27 AM 27.7886 -80.3447 231° Southwest 110 127 3,000  Level Miami Center
Wed 10:03:29 AM 27.7625 -80.3375 166° South 124 143 3,000  Level Miami Center
Wed 10:04:31 AM 27.7775 -80.3014 65° Northeast 137 158 3,000  Level Miami Center
Wed 10:05:33 AM 27.8108 -80.2892 18° North 138 159 3,000  Level Miami Center
Wed 10:06:34 AM 27.8025 -80.3203 253° West 117 135 3,000  Level Miami Center
Wed 10:07:36 AM 27.7803 -80.3458 225° Southwest 108 124 3,000  Level Miami Center
Wed 10:08:38 AM 27.7558 -80.3311 152° Southeast 120 138 3,000  Level Miami Center
Wed 10:09:40 AM 27.7753 -80.2936 60° Northeast 144 166 3,000  Level Miami Center
Wed 10:10:42 AM 27.8067 -80.2997 350° North 128 147 3,000  Level Miami Center
Wed 10:11:43 AM 27.7844 -80.3167 214° Southwest 114 131 3,000  Level Miami Center
Wed 10:12:45 AM 27.7553 -80.2947 146° Southeast 118 136 3,000  Level Miami Center
Wed 10:13:47 AM 27.7331 -80.2614 127° Southeast 122 140 3,000  Level Miami Center
Wed 10:14:49 AM 27.7081 -80.2378 140° Southeast 122 140 3,000  Level Miami Center
Wed 10:15:51 AM 27.6836 -80.2122 137° Southeast 116 133 3,000 -97 Level Miami Center
Wed 10:16:53 AM 27.6617 -80.1875 135° Southeast 111 128 2,800 -341 Descending Miami Center
Wed 10:17:54 AM 27.6431 -80.2075 224° Southwest 89 102 2,300 -390 Descending Miami Center
Wed 10:18:56 AM 27.6200 -80.2247 214° Southwest 91 105 2,000 -145 Descending Miami Center
Wed 10:19:58 AM 27.5947 -80.2322 195° South 93 107 2,000 -145 Level Miami Center
Wed 10:21:00 AM 27.6008 -80.2617 283° West 100 115 1,700 -242 Descending Miami Center
Wed 10:22:02 AM 27.6131 -80.2944 293° West 103 119 1,500 -97 Descending Miami Center
Wed 10:23:04 AM 27.6242 -80.3256 292° West 104 120 1,500 -293 Level Miami Center
Wed 10:24:05 AM 27.6336 -80.3569 289° West 103 119 900 -488 Descending Miami Center
Wed 10:25:07 AM 27.6447 -80.3856 294° West 99 114 500  Descending Miami Center
Wed 10:26:09 AM 27.6531 -80.4147 288° West 99 114 900 532 Climbing Miami Center
Wed 10:27:11 AM 27.6703 -80.4433 304° West 109 125 1,600 484 Climbing Miami Center
Wed 10:28:13 AM 27.7061 -80.4342 13° North 123 142 1,900 194 Climbing Miami Center
Wed 10:29:15 AM 27.7464 -80.4267 North 136 157 2,000 49 Climbing Miami Center
Wed 10:30:16 AM 27.7889 -80.4222 North 146 168 2,000  Level Miami Center
Wed 10:31:18 AM 27.8256 -80.4189 North 141 162 2,000  Level Miami Center
Wed 10:32:20 AM 27.8597 -80.4164 North 138 159 2,000  Level Miami Center
Wed 10:33:21 AM 27.8964 -80.4167 360° North 134 154 2,000  Level Miami Center
Wed 10:34:23 AM 27.9394 -80.4203 356° North 133 153 2,000  Level Miami Center
Wed 10:35:25 AM 27.9750 -80.4156 North 132 152 2,000  Level Miami Center
Wed 10:36:27 AM 28.0106 -80.4142 North 132 152 2,000  Level Miami Center
Wed 10:37:28 AM 28.0464 -80.4172 356° North 132 152 2,000  Level Miami Center
Wed 10:38:30 AM 28.0750 -80.4272 343° North 111 128 2,000  Level Miami Center
Wed 10:39:32 AM 28.1042 -80.4325 351° North 108 124 2,000  Level Miami Center
Wed 10:40:33 AM 28.1136 -80.4625 290° West 98 113 2,000 -98 Level Miami Center
Wed 10:41:35 AM 28.1100 -80.4931 262° West 97 112 1,800 -242 Descending Miami Center
Wed 10:42:37 AM 28.1075 -80.5231 265° West 96 110 1,500 -194 Descending Miami Center
Wed 10:43:39 AM 28.1069 -80.5528 269° West 95 109 1,400 -293 Descending Miami Center
Wed 10:44:40 AM 28.1047 -80.5819 265° West 91 105 900 -439 Descending Miami Center
Wed 10:45:42 AM 28.1036 -80.6069 267° West 87 100 500 -242 Descending Miami Center
Wed 10:46:44 AM 28.1025 -80.6322 267° West 87 100 400 -97 Descending Miami Center
Wed 10:48:00 AM 28.0836 -80.6051 128° Southeast  Level FlightAware Approximate
Wed 10:55:00 AM 27.9839 -80.4508 127° Southeast  Level FlightAware Approximate
Wed 10:56:00 AM 27.9694 -80.4290 127° Southeast  Level FlightAware Approximate
Wed 10:57:00 AM 27.9549 -80.4073 127° Southeast  Level FlightAware Approximate

Login

Don't have an account? Register now (free) for customized features, flight alerts, and more!